aviador You're here:

EPSC Decoded Metar

SZCZECIN in POLAND
Report Time2018-06-24 20:00:00
UTC Time2018-06-24 20:20:04
Flight Rules vfr VFR
Wind330° at 03 kt
W.Decomp.*RWY 31: 2.9 kt HW 0.9 kt RCW
W.Rank330° ranks 32
Current wind is below 330° avg. (6.7)
Visibility9999 m
Phenomena:N/A
Clouds:N/A
Expected CloudBase > 2,000 ft AGL from Temp-Dew spread
CeilingNone
Temp15°C (ISA 0)
Dew Point10°C (72% RH)
AAT14.0°C
QNH1017 hPa
Density Alt43 ft
Elevation10 ft
Report Wrong Elevation
Raw Report
EPSC 242000Z 33003KT CAVOK 15/10 Q1017=

Extra information for EPSC:More info

Metar Taf Metar & Taf Last 4 Metars F.Rules Stats Wind Profile Meteogram Temp Stats Airport Information Weather charts Add Link Nearby VenuesMetar ALERT Operation Metar Decoded Social comments